Zhengzhou, China
Current Conditions -  °F | °C
As of 2:00 AM on Friday 24 Oct 2014 (Local Time) from ZHCC Reporting Station
Haze Haze  
Wind Chill: 61°   Ceiling: Unl
Heat Index: 61°   Visibility: 0.93mi
Dew Point: 57°   Wind: 4mph
Humidity: 88%   Direction: 190°S
Pressure: 29.94"   Gusts: NA
Location:  34.75°N, 113.67°E
Report Text: ZHCC 231800Z 19002MPS 160V220 1500 BR NSC 16/14 Q1014 NOSIG
Loading
Personal Weather Stations






























Interactive Weather Map
Tropical Storm Tracking
New forecast layout! Learn more

10-Day Weather Forecast

Advertisements
Track Severe Weather on mobile